sensor_id;sensor_type;location;lat;lon;timestamp;pressure;altitude;pressure_sealevel;temperature;humidity
86100;BME280;76724;47.496;19.064;2024-03-25T03:04:44;99483.00;;;6.52;60.59
86100;BME280;76724;47.496;19.064;2024-03-25T03:05:20;99478.72;;;6.51;61.43
86100;BME280;76724;47.496;19.064;2024-03-25T03:05:52;99486.28;;;6.54;61.08
86100;BME280;76724;47.496;19.064;2024-03-25T03:06:26;99491.38;;;6.55;60.96
86100;BME280;76724;47.496;19.064;2024-03-25T03:06:59;99492.72;;;6.59;60.71
86100;BME280;76724;47.496;19.064;2024-03-25T03:07:31;99496.63;;;6.63;61.05
86100;BME280;76724;47.496;19.064;2024-03-25T03:08:04;99486.97;;;6.64;60.54
86100;BME280;76724;47.496;19.064;2024-03-25T03:08:37;99489.72;;;6.62;60.12
86100;BME280;76724;47.496;19.064;2024-03-25T03:09:10;99491.88;;;6.67;60.71
86100;BME280;76724;47.496;19.064;2024-03-25T03:09:43;99490.75;;;6.70;60.13
86100;BME280;76724;47.496;19.064;2024-03-25T03:10:16;99496.47;;;6.73;60.41
86100;BME280;76724;47.496;19.064;2024-03-25T03:10:49;99502.88;;;6.79;59.98
86100;BME280;76724;47.496;19.064;2024-03-25T03:11:22;99493.03;;;6.81;60.11
86100;BME280;76724;47.496;19.064;2024-03-25T03:11:55;99494.00;;;6.80;60.39
86100;BME280;76724;47.496;19.064;2024-03-25T03:12:28;99494.00;;;6.80;59.98
86100;BME280;76724;47.496;19.064;2024-03-25T03:13:01;99494.31;;;6.85;59.96
86100;BME280;76724;47.496;19.064;2024-03-25T03:13:33;99496.63;;;6.88;59.83
86100;BME280;76724;47.496;19.064;2024-03-25T03:14:06;99499.91;;;6.90;60.11
86100;BME280;76724;47.496;19.064;2024-03-25T03:14:39;99490.03;;;6.92;59.88
86100;BME280;76724;47.496;19.064;2024-03-25T03:15:12;99497.59;;;6.95;59.70
86100;BME280;76724;47.496;19.064;2024-03-25T03:15:45;99494.97;;;6.95;59.60
86100;BME280;76724;47.496;19.064;2024-03-25T03:16:17;99491.16;;;6.98;59.78
86100;BME280;76724;47.496;19.064;2024-03-25T03:16:50;99491.00;;;6.99;59.25
86100;BME280;76724;47.496;19.064;2024-03-25T03:17:26;99496.28;;;6.99;59.00
86100;BME280;76724;47.496;19.064;2024-03-25T03:17:59;99491.50;;;6.95;59.50
86100;BME280;76724;47.496;19.064;2024-03-25T03:18:32;99501.53;;;6.99;59.24
86100;BME280;76724;47.496;19.064;2024-03-25T03:19:05;99498.56;;;7.02;59.39
86100;BME280;76724;47.496;19.064;2024-03-25T03:19:38;99502.19;;;7.01;59.08
86100;BME280;76724;47.496;19.064;2024-03-25T03:20:11;99489.00;;;7.01;58.91
86100;BME280;76724;47.496;19.064;2024-03-25T03:20:44;99498.91;;;6.99;59.56
86100;BME280;76724;47.496;19.064;2024-03-25T03:21:17;99498.41;;;7.04;59.23
86100;BME280;76724;47.496;19.064;2024-03-25T03:21:50;99497.88;;;7.08;59.03
86100;BME280;76724;47.496;19.064;2024-03-25T03:22:23;99505.13;;;7.06;59.08
86100;BME280;76724;47.496;19.064;2024-03-25T03:22:56;99500.50;;;7.08;59.47
86100;BME280;76724;47.496;19.064;2024-03-25T03:23:28;99501.19;;;7.10;58.45
86100;BME280;76724;47.496;19.064;2024-03-25T03:24:02;99501.19;;;7.10;58.96
86100;BME280;76724;47.496;19.064;2024-03-25T03:24:35;99495.25;;;7.08;58.60
86100;BME280;76724;47.496;19.064;2024-03-25T03:25:08;99501.19;;;7.10;58.91
86100;BME280;76724;47.496;19.064;2024-03-25T03:25:41;99498.56;;;7.10;58.78
86100;BME280;76724;47.496;19.064;2024-03-25T03:26:13;99492.94;;;7.13;58.72
86100;BME280;76724;47.496;19.064;2024-03-25T03:26:46;99502.66;;;7.13;58.28
86100;BME280;76724;47.496;19.064;2024-03-25T03:27:19;99502.16;;;7.17;58.87
86100;BME280;76724;47.496;19.064;2024-03-25T03:27:51;99502.78;;;7.20;58.52
86100;BME280;76724;47.496;19.064;2024-03-25T03:28:24;99496.56;;;7.21;58.63
86100;BME280;76724;47.496;19.064;2024-03-25T03:28:57;99502.47;;;7.23;58.31
86100;BME280;76724;47.496;19.064;2024-03-25T03:29:30;99502.09;;;7.26;57.99
86100;BME280;76724;47.496;19.064;2024-03-25T03:30:03;99504.91;;;7.24;58.15
86100;BME280;76724;47.496;19.064;2024-03-25T03:30:36;99505.91;;;7.23;58.32
86100;BME280;76724;47.496;19.064;2024-03-25T03:31:09;99498.50;;;7.27;58.18
86100;BME280;76724;47.496;19.064;2024-03-25T03:31:43;99500.78;;;7.30;58.03
86100;BME280;76724;47.496;19.064;2024-03-25T03:32:15;99494.88;;;7.28;57.95
86100;BME280;76724;47.496;19.064;2024-03-25T03:32:48;99502.44;;;7.31;58.09
86100;BME280;76724;47.496;19.064;2024-03-25T03:33:21;99499.47;;;7.34;57.75
86100;BME280;76724;47.496;19.064;2024-03-25T03:33:54;99507.69;;;7.39;57.76
86100;BME280;76724;47.496;19.064;2024-03-25T03:34:27;99499.78;;;7.39;57.57
86100;BME280;76724;47.496;19.064;2024-03-25T03:34:59;99508.31;;;7.41;57.52
86100;BME280;76724;47.496;19.064;2024-03-25T03:35:33;99505.69;;;7.41;57.49
86100;BME280;76724;47.496;19.064;2024-03-25T03:36:06;99506.34;;;7.43;57.56
86100;BME280;76724;47.496;19.064;2024-03-25T03:36:39;99504.38;;;7.45;57.53
86100;BME280;76724;47.496;19.064;2024-03-25T03:37:12;99503.22;;;7.39;57.35
86100;BME280;76724;47.496;19.064;2024-03-25T03:37:45;99502.88;;;7.42;57.42
86100;BME280;76724;47.496;19.064;2024-03-25T03:38:18;99503.38;;;7.46;57.51
86100;BME280;76724;47.496;19.064;2024-03-25T03:38:51;99504.19;;;7.47;57.29
86100;BME280;76724;47.496;19.064;2024-03-25T03:39:24;99508.31;;;7.49;57.12
86100;BME280;76724;47.496;19.064;2024-03-25T03:39:56;99505.13;;;7.54;56.97
86100;BME280;76724;47.496;19.064;2024-03-25T03:40:29;99513.59;;;7.49;57.29
86100;BME280;76724;47.496;19.064;2024-03-25T03:41:03;99513.03;;;7.54;56.89
86100;BME280;76724;47.496;19.064;2024-03-25T03:41:36;99509.44;;;7.55;56.84
86100;BME280;76724;47.496;19.064;2024-03-25T03:42:08;99512.06;;;7.55;57.20
86100;BME280;76724;47.496;19.064;2024-03-25T03:42:41;99507.31;;;7.50;57.09
86100;BME280;76724;47.496;19.064;2024-03-25T03:43:13;99512.59;;;7.50;56.99
86100;BME280;76724;47.496;19.064;2024-03-25T03:43:46;99518.50;;;7.52;57.18
86100;BME280;76724;47.496;19.064;2024-03-25T03:44:19;99510.25;;;7.55;56.79
86100;BME280;76724;47.496;19.064;2024-03-25T03:44:52;99507.63;;;7.47;56.81
86100;BME280;76724;47.496;19.064;2024-03-25T03:45:25;99505.50;;;7.51;57.17
86100;BME280;76724;47.496;19.064;2024-03-25T03:45:58;99511.72;;;7.58;56.82
86100;BME280;76724;47.496;19.064;2024-03-25T03:46:30;99509.25;;;7.56;56.77
86100;BME280;76724;47.496;19.064;2024-03-25T03:47:03;99511.72;;;7.58;56.75
86100;BME280;76724;47.496;19.064;2024-03-25T03:47:36;99509.91;;;7.58;56.71
86100;BME280;76724;47.496;19.064;2024-03-25T03:48:09;99515.84;;;7.60;56.67
86100;BME280;76724;47.496;19.064;2024-03-25T03:48:42;99509.72;;;7.60;56.69
86100;BME280;76724;47.496;19.064;2024-03-25T03:49:15;99513.53;;;7.57;56.66
86100;BME280;76724;47.496;19.064;2024-03-25T03:49:47;99512.53;;;7.58;56.73
86100;BME280;76724;47.496;19.064;2024-03-25T03:50:20;99517.47;;;7.61;56.44
86100;BME280;76724;47.496;19.064;2024-03-25T03:50:53;99509.38;;;7.63;56.50
86100;BME280;76724;47.496;19.064;2024-03-25T03:51:25;99516.97;;;7.66;56.62
86100;BME280;76724;47.496;19.064;2024-03-25T03:51:59;99512.66;;;7.65;56.58
86100;BME280;76724;47.496;19.064;2024-03-25T03:52:31;99510.56;;;7.60;56.54
86100;BME280;76724;47.496;19.064;2024-03-25T03:53:04;99517.81;;;7.58;56.58
86100;BME280;76724;47.496;19.064;2024-03-25T03:53:36;99512.53;;;7.58;56.60
86100;BME280;76724;47.496;19.064;2024-03-25T03:54:09;99511.53;;;7.59;56.48
86100;BME280;76724;47.496;19.064;2024-03-25T03:54:42;99513.66;;;7.64;56.51
86100;BME280;76724;47.496;19.064;2024-03-25T03:55:15;99513.22;;;7.60;56.51
86100;BME280;76724;47.496;19.064;2024-03-25T03:55:59;99495.41;;;7.54;56.49
86100;BME280;76724;47.496;19.064;2024-03-25T03:56:32;99516.13;;;7.65;56.37
86100;BME280;76724;47.496;19.064;2024-03-25T03:57:05;99520.28;;;7.60;56.51
86100;BME280;76724;47.496;19.064;2024-03-25T03:57:37;99513.84;;;7.62;56.68
86100;BME280;76724;47.496;19.064;2024-03-25T03:58:10;99524.03;;;7.65;56.73
86100;BME280;76724;47.496;19.064;2024-03-25T03:58:43;99522.25;;;7.66;56.55
86100;BME280;76724;47.496;19.064;2024-03-25T03:59:16;99516.66;;;7.61;56.70
86100;BME280;76724;47.496;19.064;2024-03-25T03:59:49;99527.06;;;7.54;56.92
86100;BME280;76724;47.496;19.064;2024-03-25T04:00:22;99512.22;;;7.53;56.86
86100;BME280;76724;47.496;19.064;2024-03-25T04:00:55;99517.63;;;7.60;56.95
86100;BME280;76724;47.496;19.064;2024-03-25T04:01:27;99514.34;;;7.58;57.03
86100;BME280;76724;47.496;19.064;2024-03-25T04:02:01;99518.94;;;7.64;57.10
86100;BME280;76724;47.496;19.064;2024-03-25T04:02:33;99511.91;;;7.56;57.14
86100;BME280;76724;47.496;19.064;2024-03-25T04:03:06;99509.72;;;7.60;57.43
86100;BME280;76724;47.496;19.064;2024-03-25T04:03:41;99512.22;;;7.61;57.25
86100;BME280;76724;47.496;19.064;2024-03-25T04:04:14;99515.50;;;7.63;57.23
86100;BME280;76724;47.496;19.064;2024-03-25T04:04:47;99514.50;;;7.64;57.18
86100;BME280;76724;47.496;19.064;2024-03-25T04:05:20;99511.53;;;7.59;57.85
86100;BME280;76724;47.496;19.064;2024-03-25T04:05:52;99521.13;;;7.60;57.68
86100;BME280;76724;47.496;19.064;2024-03-25T04:06:25;99514.50;;;7.64;57.94
86100;BME280;76724;47.496;19.064;2024-03-25T04:06:58;99516.97;;;7.66;57.62
86100;BME280;76724;47.496;19.064;2024-03-25T04:07:32;99515.84;;;7.60;57.81
86100;BME280;76724;47.496;19.064;2024-03-25T04:08:05;99515.38;;;7.49;57.46
86100;BME280;76724;47.496;19.064;2024-03-25T04:08:39;99523.13;;;7.50;57.92
86100;BME280;76724;47.496;19.064;2024-03-25T04:09:12;99519.19;;;7.46;57.39
86100;BME280;76724;47.496;19.064;2024-03-25T04:09:45;99521.19;;;7.44;57.45
86100;BME280;76724;47.496;19.064;2024-03-25T04:10:18;99515.41;;;7.40;57.86
86100;BME280;76724;47.496;19.064;2024-03-25T04:10:51;99525.28;;;7.47;57.82
86100;BME280;76724;47.496;19.064;2024-03-25T04:11:24;99521.50;;;7.49;57.84
86100;BME280;76724;47.496;19.064;2024-03-25T04:11:56;99518.31;;;7.54;57.80
86100;BME280;76724;47.496;19.064;2024-03-25T04:12:29;99515.53;;;7.55;57.46
86100;BME280;76724;47.496;19.064;2024-03-25T04:13:05;99524.59;;;7.53;57.55
86100;BME280;76724;47.496;19.064;2024-03-25T04:13:38;99518.47;;;7.60;57.31
86100;BME280;76724;47.496;19.064;2024-03-25T04:14:11;99518.94;;;7.64;57.37
86100;BME280;76724;47.496;19.064;2024-03-25T04:14:46;99522.75;;;7.61;57.27
86100;BME280;76724;47.496;19.064;2024-03-25T04:15:19;99515.50;;;7.63;57.24
86100;BME280;76724;47.496;19.064;2024-03-25T04:15:51;99521.25;;;7.67;57.22
86100;BME280;76724;47.496;19.064;2024-03-25T04:16:25;99519.88;;;7.71;56.77
86100;BME280;76724;47.496;19.064;2024-03-25T04:16:57;99518.25;;;7.70;57.07
86100;BME280;76724;47.496;19.064;2024-03-25T04:17:31;99513.47;;;7.74;57.03
86100;BME280;76724;47.496;19.064;2024-03-25T04:18:04;99524.53;;;7.69;57.02
86100;BME280;76724;47.496;19.064;2024-03-25T04:18:37;99518.44;;;7.68;56.98
86100;BME280;76724;47.496;19.064;2024-03-25T04:19:10;99524.72;;;7.67;57.36
86100;BME280;76724;47.496;19.064;2024-03-25T04:19:43;99521.88;;;7.69;56.92
86100;BME280;76724;47.496;19.064;2024-03-25T04:20:16;99524.88;;;7.66;57.16
86100;BME280;76724;47.496;19.064;2024-03-25T04:20:49;99531.31;;;7.63;57.06
86100;BME280;76724;47.496;19.064;2024-03-25T04:21:22;99522.41;;;7.64;56.86
86100;BME280;76724;47.496;19.064;2024-03-25T04:21:55;99532.25;;;7.70;57.01
86100;BME280;76724;47.496;19.064;2024-03-25T04:22:28;99523.06;;;7.66;57.35
86100;BME280;76724;47.496;19.064;2024-03-25T04:23:01;99528.34;;;7.66;56.87
86100;BME280;76724;47.496;19.064;2024-03-25T04:23:34;99534.59;;;7.65;56.95
86100;BME280;76724;47.496;19.064;2024-03-25T04:24:07;99527.53;;;7.66;57.16
86100;BME280;76724;47.496;19.064;2024-03-25T04:24:42;99527.53;;;7.66;56.98
86100;BME280;76724;47.496;19.064;2024-03-25T04:25:14;99527.16;;;7.69;57.03
86100;BME280;76724;47.496;19.064;2024-03-25T04:25:47;99534.75;;;7.72;57.06
86100;BME280;76724;47.496;19.064;2024-03-25T04:26:20;99531.94;;;7.74;56.93
86100;BME280;76724;47.496;19.064;2024-03-25T04:26:53;99531.44;;;7.70;56.95
86100;BME280;76724;47.496;19.064;2024-03-25T04:27:26;99539.22;;;7.72;56.81
86100;BME280;76724;47.496;19.064;2024-03-25T04:27:59;99531.81;;;7.67;57.03
86100;BME280;76724;47.496;19.064;2024-03-25T04:28:32;99529.16;;;7.67;57.03
86100;BME280;76724;47.496;19.064;2024-03-25T04:29:05;99540.03;;;7.72;56.93
86100;BME280;76724;47.496;19.064;2024-03-25T04:29:37;99541.31;;;7.76;56.97
86100;BME280;76724;47.496;19.064;2024-03-25T04:30:11;99541.31;;;7.76;56.76
86100;BME280;76724;47.496;19.064;2024-03-25T04:30:50;99542.63;;;7.80;56.69
86100;BME280;76724;47.496;19.064;2024-03-25T04:31:23;99538.16;;;7.81;56.57
86100;BME280;76724;47.496;19.064;2024-03-25T04:31:56;99536.34;;;7.81;56.99
86100;BME280;76724;47.496;19.064;2024-03-25T04:32:29;99532.69;;;7.82;56.60
86100;BME280;76724;47.496;19.064;2024-03-25T04:33:02;99538.81;;;7.83;56.90
86100;BME280;76724;47.496;19.064;2024-03-25T04:33:35;99537.66;;;7.85;56.64
86100;BME280;76724;47.496;19.064;2024-03-25T04:34:08;99547.56;;;7.83;56.59
86100;BME280;76724;47.496;19.064;2024-03-25T04:34:40;99530.91;;;7.83;56.52
86100;BME280;76724;47.496;19.064;2024-03-25T04:35:13;99545.06;;;7.82;56.70
86100;BME280;76724;47.496;19.064;2024-03-25T04:35:46;99539.78;;;7.82;56.70
86100;BME280;76724;47.496;19.064;2024-03-25T04:36:19;99535.00;;;7.85;56.59
86100;BME280;76724;47.496;19.064;2024-03-25T04:36:52;99535.50;;;7.89;56.70
86100;BME280;76724;47.496;19.064;2024-03-25T04:37:26;99542.09;;;7.85;56.74
86100;BME280;76724;47.496;19.064;2024-03-25T04:38:00;99533.19;;;7.86;56.62
86100;BME280;76724;47.496;19.064;2024-03-25T04:38:33;99539.47;;;7.85;56.61
86100;BME280;76724;47.496;19.064;2024-03-25T04:39:06;99540.47;;;7.84;56.79
86100;BME280;76724;47.496;19.064;2024-03-25T04:39:40;99541.09;;;7.86;56.74
86100;BME280;76724;47.496;19.064;2024-03-25T04:40:13;99535.50;;;7.89;56.59
86100;BME280;76724;47.496;19.064;2024-03-25T04:40:51;99541.75;;;7.88;56.70
86100;BME280;76724;47.496;19.064;2024-03-25T04:41:24;99542.22;;;7.91;56.70
86100;BME280;76724;47.496;19.064;2024-03-25T04:41:56;99541.41;;;7.91;56.53
86100;BME280;76724;47.496;19.064;2024-03-25T04:42:30;99543.41;;;7.89;56.64
86100;BME280;76724;47.496;19.064;2024-03-25T04:43:02;99546.88;;;7.81;56.57
86100;BME280;76724;47.496;19.064;2024-03-25T04:43:35;99542.28;;;7.83;56.54
86100;BME280;76724;47.496;19.064;2024-03-25T04:44:08;99544.09;;;7.83;56.62
86100;BME280;76724;47.496;19.064;2024-03-25T04:44:41;99544.22;;;7.89;56.35
86100;BME280;76724;47.496;19.064;2024-03-25T04:45:14;99547.00;;;7.96;56.23
86100;BME280;76724;47.496;19.064;2024-03-25T04:45:47;99544.53;;;7.94;56.11
86100;BME280;76724;47.496;19.064;2024-03-25T04:46:20;99554.59;;;7.91;56.31
86100;BME280;76724;47.496;19.064;2024-03-25T04:46:52;99545.69;;;7.92;56.29
86100;BME280;76724;47.496;19.064;2024-03-25T04:47:25;99546.06;;;7.89;56.21
86100;BME280;76724;47.496;19.064;2024-03-25T04:47:58;99552.97;;;7.90;56.39
86100;BME280;76724;47.496;19.064;2024-03-25T04:48:30;99545.06;;;7.90;56.13
86100;BME280;76724;47.496;19.064;2024-03-25T04:49:03;99545.81;;;7.98;56.02
86100;BME280;76724;47.496;19.064;2024-03-25T04:49:36;99547.81;;;7.96;56.25
86100;BME280;76724;47.496;19.064;2024-03-25T04:50:10;99553.03;;;8.05;56.07
86100;BME280;76724;47.496;19.064;2024-03-25T04:50:43;99551.59;;;7.94;55.71
86100;BME280;76724;47.496;19.064;2024-03-25T04:51:15;99548.16;;;7.93;56.13
86100;BME280;76724;47.496;19.064;2024-03-25T04:51:48;99550.09;;;8.00;56.00
86100;BME280;76724;47.496;19.064;2024-03-25T04:52:24;99544.03;;;7.91;56.10
86100;BME280;76724;47.496;19.064;2024-03-25T04:52:58;99554.53;;;7.99;55.96
86100;BME280;76724;47.496;19.064;2024-03-25T04:53:31;99549.63;;;7.96;56.06
86100;BME280;76724;47.496;19.064;2024-03-25T04:54:04;99555.28;;;7.85;56.28
86100;BME280;76724;47.496;19.064;2024-03-25T04:54:36;99550.84;;;7.85;56.37
86100;BME280;76724;47.496;19.064;2024-03-25T04:55:09;99549.50;;;7.89;56.28
86100;BME280;76724;47.496;19.064;2024-03-25T04:55:42;99553.91;;;7.97;56.12
86100;BME280;76724;47.496;19.064;2024-03-25T04:56:14;99557.38;;;7.97;56.03
86100;BME280;76724;47.496;19.064;2024-03-25T04:56:47;99550.97;;;7.92;55.80
86100;BME280;76724;47.496;19.064;2024-03-25T04:57:20;99563.16;;;7.93;56.08
86100;BME280;76724;47.496;19.064;2024-03-25T04:57:53;99554.91;;;7.96;56.12
86100;BME280;76724;47.496;19.064;2024-03-25T04:58:26;99556.38;;;7.98;55.97
86100;BME280;76724;47.496;19.064;2024-03-25T04:59:01;99556.03;;;8.02;55.92
86100;BME280;76724;47.496;19.064;2024-03-25T04:59:34;99558.19;;;7.98;55.94
86100;BME280;76724;47.496;19.064;2024-03-25T05:00:08;99560.13;;;8.04;56.07
86100;BME280;76724;47.496;19.064;2024-03-25T05:00:43;99548.94;;;8.02;56.20
86100;BME280;76724;47.496;19.064;2024-03-25T05:01:16;99563.53;;;7.90;56.20
86100;BME280;76724;47.496;19.064;2024-03-25T05:01:49;99561.53;;;7.92;56.36
86100;BME280;76724;47.496;19.064;2024-03-25T05:02:22;99566.94;;;7.98;56.16
86100;BME280;76724;47.496;19.064;2024-03-25T05:02:55;99560.69;;;7.91;56.14
86100;BME280;76724;47.496;19.064;2024-03-25T05:03:28;99559.69;;;7.92;56.45
86100;BME280;76724;47.496;19.064;2024-03-25T05:04:00;99566.50;;;7.87;56.30
86100;BME280;76724;47.496;19.064;2024-03-25T05:04:36;99569.63;;;7.90;56.55
86100;BME280;76724;47.496;19.064;2024-03-25T05:05:09;99562.34;;;7.92;56.43
86100;BME280;76724;47.496;19.064;2024-03-25T05:05:42;99567.63;;;7.92;56.19
86100;BME280;76724;47.496;19.064;2024-03-25T05:06:15;99563.03;;;7.86;56.58
86100;BME280;76724;47.496;19.064;2024-03-25T05:06:47;99565.66;;;7.86;57.00
86100;BME280;76724;47.496;19.064;2024-03-25T05:07:20;99568.81;;;7.82;56.63
86100;BME280;76724;47.496;19.064;2024-03-25T05:07:53;99568.31;;;7.86;56.57
86100;BME280;76724;47.496;19.064;2024-03-25T05:08:27;99566.19;;;7.82;56.84
86100;BME280;76724;47.496;19.064;2024-03-25T05:08:59;99569.94;;;7.87;56.90
86100;BME280;76724;47.496;19.064;2024-03-25T05:09:32;99565.16;;;7.91;56.61
86100;BME280;76724;47.496;19.064;2024-03-25T05:10:05;99566.16;;;7.90;56.57
86100;BME280;76724;47.496;19.064;2024-03-25T05:10:39;99574.38;;;7.95;56.34
86100;BME280;76724;47.496;19.064;2024-03-25T05:11:12;99575.22;;;7.95;56.27
86100;BME280;76724;47.496;19.064;2024-03-25T05:11:45;99573.56;;;7.94;56.21
86100;BME280;76724;47.496;19.064;2024-03-25T05:12:18;99574.72;;;7.92;56.32
86100;BME280;76724;47.496;19.064;2024-03-25T05:12:50;99572.56;;;7.95;56.30
86100;BME280;76724;47.496;19.064;2024-03-25T05:13:23;99569.94;;;7.87;56.26
86100;BME280;76724;47.496;19.064;2024-03-25T05:13:56;99575.22;;;7.87;56.65
86100;BME280;76724;47.496;19.064;2024-03-25T05:14:28;99574.06;;;7.90;56.33
86100;BME280;76724;47.496;19.064;2024-03-25T05:15:01;99573.25;;;7.89;56.56
86100;BME280;76724;47.496;19.064;2024-03-25T05:15:34;99568.28;;;7.94;56.59
86100;BME280;76724;47.496;19.064;2024-03-25T05:16:07;99571.13;;;7.85;56.37
86100;BME280;76724;47.496;19.064;2024-03-25T05:16:39;99574.41;;;7.87;56.58
86100;BME280;76724;47.496;19.064;2024-03-25T05:17:12;99576.03;;;7.88;56.49
86100;BME280;76724;47.496;19.064;2024-03-25T05:17:45;99573.59;;;7.86;56.58
86100;BME280;76724;47.496;19.064;2024-03-25T05:18:18;99578.53;;;7.89;56.42
86100;BME280;76724;47.496;19.064;2024-03-25T05:18:51;99576.53;;;7.91;56.17
86100;BME280;76724;47.496;19.064;2024-03-25T05:19:23;99582.63;;;7.92;56.41
86100;BME280;76724;47.496;19.064;2024-03-25T05:19:56;99584.75;;;7.96;56.47
86100;BME280;76724;47.496;19.064;2024-03-25T05:20:29;99587.09;;;7.91;56.33
86100;BME280;76724;47.496;19.064;2024-03-25T05:21:04;99580.56;;;7.79;56.49
86100;BME280;76724;47.496;19.064;2024-03-25T05:21:37;99595.38;;;7.80;56.89
86100;BME280;76724;47.496;19.064;2024-03-25T05:22:09;99583.19;;;7.79;56.82
86100;BME280;76724;47.496;19.064;2024-03-25T05:22:42;99586.97;;;7.85;56.73
86100;BME280;76724;47.496;19.064;2024-03-25T05:23:15;99583.31;;;7.86;56.87
86100;BME280;76724;47.496;19.064;2024-03-25T05:23:48;99586.31;;;7.83;56.73
86100;BME280;76724;47.496;19.064;2024-03-25T05:24:21;99587.59;;;7.87;56.80
86100;BME280;76724;47.496;19.064;2024-03-25T05:24:53;99586.59;;;7.88;56.81
86100;BME280;76724;47.496;19.064;2024-03-25T05:25:26;99582.50;;;7.85;56.65
86100;BME280;76724;47.496;19.064;2024-03-25T05:26:01;99586.00;;;7.78;57.13
86100;BME280;76724;47.496;19.064;2024-03-25T05:26:34;99592.25;;;7.85;56.99
86100;BME280;76724;47.496;19.064;2024-03-25T05:27:06;99590.25;;;7.87;56.87
86100;BME280;76724;47.496;19.064;2024-03-25T05:27:39;99592.56;;;7.90;56.94
86100;BME280;76724;47.496;19.064;2024-03-25T05:28:12;99589.78;;;7.83;56.98
86100;BME280;76724;47.496;19.064;2024-03-25T05:28:46;99598.47;;;7.92;56.74
86100;BME280;76724;47.496;19.064;2024-03-25T05:29:18;99595.31;;;7.96;56.92
86100;BME280;76724;47.496;19.064;2024-03-25T05:29:51;99606.00;;;8.03;56.67
86100;BME280;76724;47.496;19.064;2024-03-25T05:30:24;99596.13;;;7.97;56.80
86100;BME280;76724;47.496;19.064;2024-03-25T05:30:56;99599.41;;;7.99;56.78
86100;BME280;76724;47.496;19.064;2024-03-25T05:31:29;99603.72;;;8.00;56.88
86100;BME280;76724;47.496;19.064;2024-03-25T05:32:04;99601.94;;;7.92;57.15
86100;BME280;76724;47.496;19.064;2024-03-25T05:32:37;99604.56;;;7.92;57.12
86100;BME280;76724;47.496;19.064;2024-03-25T05:33:10;99600.16;;;7.85;57.31
86100;BME280;76724;47.496;19.064;2024-03-25T05:33:43;99598.84;;;7.81;57.18
86100;BME280;76724;47.496;19.064;2024-03-25T05:34:15;99599.50;;;7.83;57.23
86100;BME280;76724;47.496;19.064;2024-03-25T05:34:48;99601.63;;;7.87;57.31
86100;BME280;76724;47.496;19.064;2024-03-25T05:35:21;99612.34;;;7.86;57.27
86100;BME280;76724;47.496;19.064;2024-03-25T05:35:54;99606.75;;;7.81;58.01
86100;BME280;76724;47.496;19.064;2024-03-25T05:36:27;99602.53;;;7.72;57.90
86100;BME280;76724;47.496;19.064;2024-03-25T05:36:59;99608.13;;;7.68;57.99
86100;BME280;76724;47.496;19.064;2024-03-25T05:37:32;99601.53;;;7.73;57.98
86100;BME280;76724;47.496;19.064;2024-03-25T05:38:06;99604.84;;;7.66;58.19
86100;BME280;76724;47.496;19.064;2024-03-25T05:38:40;99606.50;;;7.59;58.55
86100;BME280;76724;47.496;19.064;2024-03-25T05:39:14;99603.66;;;7.69;58.51
86100;BME280;76724;47.496;19.064;2024-03-25T05:39:47;99603.16;;;7.74;58.46
86100;BME280;76724;47.496;19.064;2024-03-25T05:40:20;99602.84;;;7.68;58.53
86100;BME280;76724;47.496;19.064;2024-03-25T05:40:53;99605.31;;;7.70;58.36
86100;BME280;76724;47.496;19.064;2024-03-25T05:41:26;99610.91;;;7.75;58.48
86100;BME280;76724;47.496;19.064;2024-03-25T05:41:58;99606.13;;;7.79;58.27
86100;BME280;76724;47.496;19.064;2024-03-25T05:42:31;99609.75;;;7.78;58.70
86100;BME280;76724;47.496;19.064;2024-03-25T05:43:04;99603.16;;;7.74;58.92
86100;BME280;76724;47.496;19.064;2024-03-25T05:43:37;99601.84;;;7.69;58.81
86100;BME280;76724;47.496;19.064;2024-03-25T05:44:10;99610.22;;;7.81;58.99
86100;BME280;76724;47.496;19.064;2024-03-25T05:44:45;99598.84;;;7.81;58.88
86100;BME280;76724;47.496;19.064;2024-03-25T05:45:18;99603.25;;;7.88;58.88
86100;BME280;76724;47.496;19.064;2024-03-25T05:45:52;99609.56;;;7.79;59.20
86100;BME280;76724;47.496;19.064;2024-03-25T05:46:26;99606.94;;;7.79;59.16
86100;BME280;76724;47.496;19.064;2024-03-25T05:46:58;99611.06;;;7.74;59.74
86100;BME280;76724;47.496;19.064;2024-03-25T05:47:31;99609.44;;;7.64;60.00
86100;BME280;76724;47.496;19.064;2024-03-25T05:48:04;99612.59;;;7.68;60.43
86100;BME280;76724;47.496;19.064;2024-03-25T05:48:37;99617.03;;;7.67;60.70
86100;BME280;76724;47.496;19.064;2024-03-25T05:49:10;99613.25;;;7.62;60.87
86100;BME280;76724;47.496;19.064;2024-03-25T05:49:43;99617.53;;;7.63;61.15
86100;BME280;76724;47.496;19.064;2024-03-25T05:50:15;99607.63;;;7.73;60.35
86100;BME280;76724;47.496;19.064;2024-03-25T05:51:01;99603.16;;;7.65;60.68
86100;BME280;76724;47.496;19.064;2024-03-25T05:51:34;99609.59;;;7.71;61.57
86100;BME280;76724;47.496;19.064;2024-03-25T05:52:07;99612.59;;;7.68;61.43
86100;BME280;76724;47.496;19.064;2024-03-25T05:52:40;99615.41;;;7.66;61.86
86100;BME280;76724;47.496;19.064;2024-03-25T05:53:13;99612.44;;;7.61;62.19
86100;BME280;76724;47.496;19.064;2024-03-25T05:53:46;99611.63;;;7.61;62.08
86100;BME280;76724;47.496;19.064;2024-03-25T05:54:18;99611.75;;;7.67;61.55
86100;BME280;76724;47.496;19.064;2024-03-25T05:54:51;99613.31;;;7.46;62.22
86100;BME280;76724;47.496;19.064;2024-03-25T05:55:24;99615.28;;;7.35;63.04
86100;BME280;76724;47.496;19.064;2024-03-25T05:55:57;99605.56;;;7.44;62.73
86100;BME280;76724;47.496;19.064;2024-03-25T05:56:31;99616.94;;;7.44;62.63
86100;BME280;76724;47.496;19.064;2024-03-25T05:57:04;99617.72;;;7.53;62.46
86100;BME280;76724;47.496;19.064;2024-03-25T05:57:36;99609.81;;;7.53;62.72
86100;BME280;76724;47.496;19.064;2024-03-25T05:58:09;99611.44;;;7.54;62.29
86100;BME280;76724;47.496;19.064;2024-03-25T05:58:42;99618.84;;;7.59;62.09
86100;BME280;76724;47.496;19.064;2024-03-25T05:59:15;99617.56;;;7.55;62.72
86100;BME280;76724;47.496;19.064;2024-03-25T05:59:48;99620.03;;;7.56;62.33